Kelsay, Texas
Current Conditions -  °F | °C
As of 1:35 AM on Wednesday 26 Nov 2014 (Local Time) from KBKS Reporting Station
Clear Clear  
Wind Chill: 43°   Ceiling: Unl
Heat Index: 43°   Visibility: 10mi
Dew Point: 37°   Wind: 3mph
Humidity: 80%   Direction: 210°SSW
Pressure: 30.26"   Gusts: NA
Location:  26.9826°N, 98.212°W
Report Text: KBKS 260735Z AUTO 21003KT 10SM CLR 06/03 A3026 RMK AO1 T00590027
Loading
Personal Weather Stations






























Interactive Weather Map New forecast layout! Learn more

10-Day Weather Forecast

Advertisements
Track Severe Weather on mobile